createdAt,value
2022-08-14T00:03:56.327Z,22.53
2022-08-14T00:07:46.444Z,22.56
2022-08-14T00:11:31.334Z,22.47
2022-08-14T00:15:16.142Z,22.42
2022-08-14T00:19:06.410Z,22.40
2022-08-14T00:23:12.630Z,22.34
2022-08-14T00:27:05.613Z,22.27
2022-08-14T00:30:55.739Z,22.28
2022-08-14T00:34:49.219Z,22.23
2022-08-14T00:38:16.433Z,22.21
2022-08-14T00:42:05.531Z,22.18
2022-08-14T00:45:43.221Z,22.01
2022-08-14T00:49:30.403Z,21.75
2022-08-14T00:53:06.374Z,21.69
2022-08-14T00:56:19.369Z,21.70
2022-08-14T00:59:54.394Z,21.72
2022-08-14T01:03:10.526Z,21.78
2022-08-14T01:06:51.394Z,21.84
2022-08-14T01:10:45.022Z,21.91
2022-08-14T01:14:38.021Z,22.07
2022-08-14T01:18:28.282Z,22.03
2022-08-14T01:22:26.699Z,21.99
2022-08-14T01:25:55.956Z,22.00
2022-08-14T01:29:51.230Z,22.03
2022-08-14T01:32:43.916Z,21.89
2022-08-14T01:36:22.865Z,21.79
2022-08-14T01:40:12.630Z,21.79
2022-08-14T01:44:06.220Z,21.70
2022-08-14T01:48:03.642Z,21.65
2022-08-14T01:51:52.870Z,21.51
2022-08-14T01:55:36.847Z,21.58
2022-08-14T01:59:26.802Z,21.67
2022-08-14T02:02:22.877Z,21.51
2022-08-14T02:05:52.883Z,21.34
2022-08-14T02:09:42.264Z,21.38
2022-08-14T02:13:21.367Z,21.38
2022-08-14T02:17:11.493Z,21.36
2022-08-14T02:21:00.778Z,21.38
2022-08-14T02:24:49.888Z,21.33
2022-08-14T02:28:58.028Z,21.22
2022-08-14T02:32:48.962Z,21.04
2022-08-14T02:37:03.950Z,20.85
2022-08-14T02:40:47.291Z,20.84
2022-08-14T02:44:39.863Z,20.85
2022-08-14T02:49:02.063Z,20.84
2022-08-14T02:52:56.355Z,20.81
2022-08-14T02:57:15.562Z,20.73
2022-08-14T03:00:57.399Z,20.74
2022-08-14T03:04:47.121Z,20.73
2022-08-14T03:08:36.250Z,20.69
2022-08-14T03:12:31.402Z,20.57
2022-08-14T03:16:19.884Z,20.51
2022-08-14T03:20:15.763Z,20.39
2022-08-14T03:23:45.201Z,20.40
2022-08-14T03:26:44.291Z,20.31
2022-08-14T03:30:39.052Z,20.27
2022-08-14T03:34:47.755Z,20.33
2022-08-14T03:39:14.561Z,20.40
2022-08-14T03:42:31.052Z,20.35
2022-08-14T03:46:38.710Z,20.39
2022-08-14T03:50:44.621Z,20.42
2022-08-14T03:54:39.648Z,20.53
2022-08-14T03:58:36.477Z,20.56
2022-08-14T04:02:37.185Z,20.66
2022-08-14T04:06:28.322Z,20.80
2022-08-14T04:10:31.623Z,20.94
2022-08-14T04:14:21.382Z,20.89
2022-08-14T04:18:12.805Z,20.80
2022-08-14T04:22:03.544Z,20.88
2022-08-14T04:25:53.748Z,21.08
2022-08-14T04:29:44.943Z,21.21
2022-08-14T04:33:34.918Z,21.42
2022-08-14T04:37:27.504Z,21.43
2022-08-14T04:41:17.012Z,21.48
2022-08-14T04:45:05.954Z,21.65
2022-08-14T04:49:00.150Z,21.73
2022-08-14T04:52:53.937Z,21.84
2022-08-14T04:56:45.566Z,21.89
2022-08-14T05:00:35.383Z,21.97
2022-08-14T05:04:27.614Z,21.98
2022-08-14T05:08:32.251Z,21.97
2022-08-14T05:13:13.123Z,22.08
2022-08-14T05:16:35.720Z,22.07
2022-08-14T05:21:05.113Z,22.06
2022-08-14T05:24:34.349Z,22.09
2022-08-14T05:28:24.249Z,22.08
2022-08-14T05:32:13.693Z,22.06
2022-08-14T05:36:04.773Z,22.18
2022-08-14T05:39:55.001Z,22.31
2022-08-14T05:43:45.046Z,22.41
2022-08-14T05:47:38.944Z,22.48
2022-08-14T05:51:31.745Z,22.69
2022-08-14T05:55:23.279Z,22.76
2022-08-14T05:59:13.736Z,22.87
2022-08-14T06:03:06.931Z,22.94
2022-08-14T06:06:56.822Z,23.18
2022-08-14T06:10:47.313Z,23.15
2022-08-14T06:14:36.893Z,23.24
2022-08-14T06:18:26.360Z,23.44
2022-08-14T06:22:24.398Z,23.51
2022-08-14T06:26:15.425Z,23.53
2022-08-14T06:30:06.236Z,23.55
2022-08-14T06:35:11.156Z,23.65
2022-08-14T06:38:16.725Z,23.74
2022-08-14T06:42:07.037Z,23.87
2022-08-14T06:45:57.167Z,23.72
2022-08-14T06:49:55.991Z,23.71
2022-08-14T06:53:48.080Z,23.65
2022-08-14T06:57:38.218Z,23.83
2022-08-14T07:01:27.425Z,23.80
2022-08-14T07:05:21.130Z,23.91
2022-08-14T07:09:23.087Z,24.10
2022-08-14T07:13:13.099Z,24.18
2022-08-14T07:17:03.072Z,24.19
2022-08-14T07:20:53.350Z,24.15
2022-08-14T07:24:43.619Z,24.35
2022-08-14T07:28:32.887Z,24.41
2022-08-14T07:32:22.350Z,24.77
2022-08-14T07:36:27.564Z,24.97
2022-08-14T07:40:22.013Z,25.06
2022-08-14T07:44:28.911Z,25.31
2022-08-14T07:48:25.415Z,25.65
2022-08-14T07:52:22.234Z,25.89
2022-08-14T07:56:44.250Z,26.34
2022-08-14T08:00:31.430Z,26.83
2022-08-14T08:04:24.091Z,27.52
2022-08-14T08:08:27.415Z,27.80
2022-08-14T08:12:21.712Z,28.71
2022-08-14T08:16:13.358Z,29.26
2022-08-14T08:20:06.187Z,28.84
2022-08-14T08:23:58.673Z,28.67
2022-08-14T08:27:57.829Z,28.57
2022-08-14T08:31:52.208Z,28.50
2022-08-14T08:35:50.730Z,28.72
2022-08-14T08:40:01.799Z,28.68
2022-08-14T08:44:17.290Z,28.88
2022-08-14T08:48:20.852Z,29.46
2022-08-14T08:52:29.025Z,29.71
2022-08-14T08:56:39.549Z,29.84
2022-08-14T09:00:30.726Z,30.11
2022-08-14T09:04:23.196Z,30.02
2022-08-14T09:08:31.541Z,30.12
2022-08-14T09:12:22.063Z,30.46
2022-08-14T09:16:18.410Z,30.44
2022-08-14T09:20:11.370Z,30.63
2022-08-14T09:24:28.784Z,30.98
2022-08-14T09:28:13.186Z,31.17
2022-08-14T09:32:04.162Z,31.05
2022-08-14T09:36:14.118Z,31.09
2022-08-14T09:40:11.505Z,31.12
2022-08-14T09:44:20.813Z,30.71
2022-08-14T09:48:27.564Z,30.23
2022-08-14T09:52:32.806Z,30.31
2022-08-14T09:56:30.243Z,30.49
2022-08-14T10:00:30.106Z,30.81
2022-08-14T10:04:37.721Z,30.69
2022-08-14T10:08:35.396Z,30.78
2022-08-14T10:12:34.044Z,31.18
2022-08-14T10:16:27.311Z,31.88
2022-08-14T10:20:40.439Z,32.66
2022-08-14T10:24:44.592Z,32.94
2022-08-14T10:28:51.574Z,33.41
2022-08-14T10:32:51.354Z,33.07
2022-08-14T10:36:44.828Z,32.17
2022-08-14T10:40:44.785Z,32.83
2022-08-14T10:44:45.304Z,32.88
2022-08-14T10:48:44.930Z,31.97
2022-08-14T10:52:37.946Z,31.53
2022-08-14T10:56:35.319Z,32.17
2022-08-14T11:00:35.701Z,32.01
2022-08-14T11:04:25.929Z,31.79
2022-08-14T11:08:16.534Z,32.62
2022-08-14T11:12:34.550Z,32.75
2022-08-14T11:16:15.917Z,32.24
2022-08-14T11:20:06.373Z,32.41
2022-08-14T11:24:50.993Z,32.53
2022-08-14T11:28:19.633Z,32.15
2022-08-14T11:32:28.755Z,32.06
2022-08-14T11:36:19.174Z,32.23
2022-08-14T11:40:08.680Z,33.50
2022-08-14T11:43:58.891Z,33.80
2022-08-14T11:48:11.151Z,33.88
2022-08-14T11:51:59.022Z,33.96
2022-08-14T11:55:50.929Z,34.47
2022-08-14T11:59:44.519Z,33.87
2022-08-14T12:03:46.514Z,33.02
2022-08-14T12:07:53.373Z,31.95
2022-08-14T12:11:47.014Z,32.34
2022-08-14T12:15:51.393Z,33.00
2022-08-14T12:19:41.025Z,32.61
2022-08-14T12:23:35.631Z,32.14
2022-08-14T12:27:25.766Z,32.90
2022-08-14T12:31:36.334Z,32.58
2022-08-14T12:35:34.530Z,31.51
2022-08-14T12:39:39.878Z,31.45
2022-08-14T12:43:35.566Z,31.73
2022-08-14T12:47:25.735Z,32.47
2022-08-14T12:51:27.080Z,33.27
2022-08-14T12:55:17.615Z,33.37
2022-08-14T12:59:10.890Z,33.60
2022-08-14T13:03:04.202Z,33.53
2022-08-14T13:06:53.735Z,33.71
2022-08-14T13:10:52.018Z,33.21
2022-08-14T13:14:48.123Z,33.51
2022-08-14T13:18:38.668Z,33.85
2022-08-14T13:22:33.631Z,33.50
2022-08-14T13:26:28.382Z,33.63
2022-08-14T13:30:21.304Z,33.82
2022-08-14T13:34:13.839Z,33.88
2022-08-14T13:38:04.282Z,33.63
2022-08-14T13:41:55.995Z,34.48
2022-08-14T13:46:00.925Z,34.24
2022-08-14T13:49:57.455Z,33.97
2022-08-14T13:54:06.950Z,34.59
2022-08-14T13:58:04.606Z,33.71
2022-08-14T14:01:55.419Z,33.25
2022-08-14T14:05:53.207Z,33.52
2022-08-14T14:09:52.998Z,34.00
2022-08-14T14:13:45.251Z,34.04
2022-08-14T14:17:35.370Z,35.11
2022-08-14T14:21:28.496Z,34.58
2022-08-14T14:25:19.449Z,34.57
2022-08-14T14:29:11.413Z,34.94
2022-08-14T14:33:05.146Z,34.99
2022-08-14T14:37:00.762Z,33.85
2022-08-14T14:41:00.632Z,33.81
2022-08-14T14:44:51.699Z,32.97
2022-08-14T14:48:54.777Z,32.57
2022-08-14T14:52:47.009Z,32.69
2022-08-14T14:56:51.945Z,33.16
2022-08-14T15:00:42.951Z,33.14
2022-08-14T15:04:43.749Z,33.22
2022-08-14T15:08:55.911Z,33.89
2022-08-14T15:12:56.653Z,33.98
2022-08-14T15:16:49.155Z,33.25
2022-08-14T15:20:40.561Z,33.80
2022-08-14T15:24:30.723Z,33.72
2022-08-14T15:28:22.091Z,33.56
2022-08-14T15:32:12.807Z,34.00
2022-08-14T15:36:02.683Z,34.29
2022-08-14T15:39:54.245Z,34.59
2022-08-14T15:43:43.599Z,34.13
2022-08-14T15:47:41.501Z,33.94
2022-08-14T15:51:32.044Z,33.92
2022-08-14T15:55:21.667Z,34.09
2022-08-14T15:59:13.261Z,33.17
2022-08-14T16:03:09.631Z,33.15
2022-08-14T16:07:01.108Z,33.88
2022-08-14T16:10:51.521Z,33.72
2022-08-14T16:14:45.835Z,33.45
2022-08-14T16:22:57.618Z,33.24
2022-08-14T16:26:51.617Z,32.67
2022-08-14T16:30:40.798Z,32.05
2022-08-14T16:34:47.157Z,31.71
2022-08-14T16:38:46.299Z,31.97
2022-08-14T16:42:39.044Z,32.57
2022-08-14T16:46:46.892Z,32.75
2022-08-14T16:50:43.465Z,32.61
2022-08-14T16:54:45.033Z,32.43
2022-08-14T16:58:35.186Z,32.36
2022-08-14T17:02:28.321Z,31.94
2022-08-14T17:06:30.611Z,31.74
2022-08-14T17:10:28.034Z,31.65
2022-08-14T17:14:22.142Z,31.62
2022-08-14T17:18:30.954Z,31.26
2022-08-14T17:22:26.935Z,30.93
2022-08-14T17:26:16.968Z,30.78
2022-08-14T17:29:57.687Z,30.59
2022-08-14T17:33:53.167Z,30.27
2022-08-14T17:37:45.217Z,30.14
2022-08-14T17:41:36.214Z,30.14
2022-08-14T17:45:06.805Z,30.14
2022-08-14T17:49:14.168Z,30.30
2022-08-14T17:53:09.317Z,30.12
2022-08-14T17:56:58.971Z,29.87
2022-08-14T18:00:39.873Z,29.89
2022-08-14T18:04:28.626Z,29.93
2022-08-14T18:08:33.301Z,29.80
2022-08-14T18:11:57.481Z,29.67
2022-08-14T18:15:14.546Z,29.67
2022-08-14T18:18:59.284Z,29.48
2022-08-14T18:22:52.391Z,29.36
2022-08-14T18:26:41.508Z,29.19
2022-08-14T18:30:33.346Z,29.03
2022-08-14T18:34:30.190Z,28.86
2022-08-14T18:37:55.781Z,28.72
2022-08-14T18:41:37.203Z,28.63
2022-08-14T18:45:31.906Z,28.42
2022-08-14T18:49:23.643Z,28.36
2022-08-14T18:53:16.295Z,28.28
2022-08-14T18:57:05.661Z,28.14
2022-08-14T19:01:10.780Z,28.11
2022-08-14T19:04:54.770Z,27.84
2022-08-14T19:08:59.534Z,27.71
2022-08-14T19:12:49.471Z,27.76
2022-08-14T19:16:48.405Z,27.66
2022-08-14T19:20:45.470Z,27.58
2022-08-14T19:24:50.193Z,27.50
2022-08-14T19:28:27.430Z,27.39
2022-08-14T19:32:26.149Z,27.23
2022-08-14T19:36:28.915Z,27.12
2022-08-14T19:40:31.731Z,26.99
2022-08-14T19:44:14.330Z,26.91
2022-08-14T19:48:15.704Z,26.86
2022-08-14T19:52:17.489Z,26.73
2022-08-14T19:56:29.010Z,26.43
2022-08-14T20:00:28.716Z,26.23
2022-08-14T20:04:45.805Z,26.06
2022-08-14T20:11:00.094Z,25.77
2022-08-14T20:12:57.402Z,25.68
2022-08-14T20:16:51.474Z,25.66
2022-08-14T20:20:41.322Z,25.52
2022-08-14T20:24:37.607Z,25.24
2022-08-14T20:28:35.406Z,25.14
2022-08-14T20:32:17.393Z,25.21
2022-08-14T20:36:16.082Z,25.25
2022-08-14T20:39:40.193Z,25.18
2022-08-14T20:43:35.494Z,25.12
2022-08-14T20:47:18.111Z,24.90
2022-08-14T20:51:11.377Z,24.92
2022-08-14T20:55:03.213Z,24.73
2022-08-14T20:58:52.504Z,24.50
2022-08-14T21:02:50.465Z,24.30
2022-08-14T21:07:23.940Z,24.27
2022-08-14T21:10:55.040Z,24.26
2022-08-14T21:14:51.952Z,23.97
2022-08-14T21:18:31.688Z,23.56
2022-08-14T21:22:11.748Z,23.48
2022-08-14T21:25:59.756Z,23.53
2022-08-14T21:29:56.014Z,23.32
2022-08-14T21:33:35.698Z,23.22
2022-08-14T21:37:26.014Z,23.16
2022-08-14T21:41:42.828Z,23.10
2022-08-14T21:45:29.180Z,23.07
2022-08-14T21:49:24.679Z,23.08
2022-08-14T21:53:03.501Z,23.09
2022-08-14T21:56:57.748Z,22.86
2022-08-14T21:59:52.249Z,22.85
2022-08-14T22:03:24.400Z,22.78
2022-08-14T22:07:12.292Z,22.63
2022-08-14T22:10:54.416Z,22.62
2022-08-14T22:14:44.223Z,22.56
2022-08-14T22:18:33.579Z,22.59
2022-08-14T22:22:11.772Z,22.61
2022-08-14T22:25:59.600Z,22.60
2022-08-14T22:29:54.778Z,22.66
2022-08-14T22:33:40.255Z,22.75
2022-08-14T22:37:31.844Z,22.68
2022-08-14T22:41:28.349Z,22.66
2022-08-14T22:45:20.632Z,22.81
2022-08-14T22:49:01.099Z,22.91
2022-08-14T22:53:06.708Z,22.92
2022-08-14T22:56:55.869Z,22.92
2022-08-14T23:00:33.606Z,22.90
2022-08-14T23:04:34.996Z,22.74
2022-08-14T23:08:59.207Z,22.52
2022-08-14T23:12:29.960Z,22.46
2022-08-14T23:16:19.995Z,22.43
2022-08-14T23:20:09.557Z,22.34
2022-08-14T23:24:07.125Z,22.33
2022-08-14T23:28:03.095Z,22.28
2022-08-14T23:31:55.948Z,22.25
2022-08-14T23:35:59.158Z,22.27
2022-08-14T23:39:49.226Z,22.24
2022-08-14T23:43:44.855Z,22.23
2022-08-14T23:47:27.624Z,22.26
2022-08-14T23:51:15.556Z,22.25
2022-08-14T23:55:05.541Z,22.28
2022-08-14T23:59:00.437Z,22.33
